createdAt,value
2018-11-13T00:00:40.282Z,35.00
2018-11-13T00:03:23.118Z,38.07
2018-11-13T00:06:06.057Z,49.37
2018-11-13T00:08:48.622Z,33.87
2018-11-13T00:11:31.370Z,46.20
2018-11-13T00:14:13.812Z,30.80
2018-11-13T00:16:56.764Z,38.67
2018-11-13T00:19:40.199Z,54.90
2018-11-13T00:22:23.624Z,34.30
2018-11-13T00:25:09.619Z,35.70
2018-11-13T00:27:53.061Z,46.83
2018-11-13T00:30:36.129Z,36.53
2018-11-13T00:33:19.009Z,40.97
2018-11-13T00:36:02.915Z,35.73
2018-11-13T00:38:45.710Z,41.60
2018-11-13T00:41:28.130Z,49.60
2018-11-13T00:44:11.560Z,30.10
2018-11-13T00:46:54.291Z,40.73
2018-11-13T00:49:36.742Z,36.00
2018-11-13T00:52:19.062Z,39.20
2018-11-13T00:55:03.163Z,34.00
2018-11-13T00:57:46.293Z,32.87
2018-11-13T01:00:29.409Z,33.10
2018-11-13T01:03:13.555Z,35.87
2018-11-13T01:05:56.483Z,33.93
2018-11-13T01:08:39.303Z,28.30
2018-11-13T01:11:21.954Z,34.77
2018-11-13T01:14:05.241Z,31.27
2018-11-13T01:16:47.496Z,37.83
2018-11-13T01:19:30.751Z,33.77
2018-11-13T01:22:13.099Z,37.53
2018-11-13T01:24:55.773Z,40.80
2018-11-13T01:27:40.126Z,31.03
2018-11-13T01:30:23.779Z,31.70
2018-11-13T01:33:06.274Z,40.60
2018-11-13T01:35:48.921Z,30.17
2018-11-13T01:38:32.360Z,32.53
2018-11-13T01:41:14.910Z,29.90
2018-11-13T01:43:57.858Z,28.77
2018-11-13T01:46:40.705Z,34.00
2018-11-13T01:49:23.118Z,28.87
2018-11-13T01:52:06.191Z,32.23
2018-11-13T01:54:49.238Z,32.10
2018-11-13T01:57:32.332Z,26.73
2018-11-13T02:00:22.118Z,27.80
2018-11-13T02:03:05.259Z,27.77
2018-11-13T02:05:48.767Z,36.67
2018-11-13T02:08:31.630Z,30.47
2018-11-13T02:11:14.406Z,31.37
2018-11-13T02:13:57.508Z,24.33
2018-11-13T02:16:40.302Z,22.80
2018-11-13T02:19:22.898Z,35.77
2018-11-13T02:22:05.689Z,34.73
2018-11-13T02:24:48.507Z,22.40
2018-11-13T02:27:31.444Z,30.47
2018-11-13T02:30:15.963Z,36.00
2018-11-13T02:32:58.794Z,28.10
2018-11-13T02:35:42.327Z,35.73
2018-11-13T02:38:25.026Z,30.30
2018-11-13T02:41:08.295Z,16.83
2018-11-13T02:43:51.254Z,33.17
2018-11-13T02:46:33.991Z,40.93
2018-11-13T02:49:16.403Z,27.63
2018-11-13T02:52:00.322Z,22.17
2018-11-13T02:54:43.486Z,31.60
2018-11-13T02:57:26.847Z,29.63
2018-11-13T03:00:11.127Z,35.13
2018-11-13T03:02:54.269Z,38.43
2018-11-13T03:05:38.020Z,32.70
2018-11-13T03:08:21.103Z,21.33
2018-11-13T03:11:04.146Z,27.93
2018-11-13T03:13:46.969Z,31.10
2018-11-13T03:16:29.926Z,30.60
2018-11-13T03:19:12.900Z,36.23
2018-11-13T03:21:55.853Z,27.40
2018-11-13T03:24:52.035Z,31.50
2018-11-13T03:27:36.827Z,33.10
2018-11-13T03:30:22.220Z,36.17
2018-11-13T03:33:06.588Z,38.47
2018-11-13T03:35:51.567Z,26.73
2018-11-13T03:38:33.899Z,22.73
2018-11-13T03:41:17.938Z,22.60
2018-11-13T03:44:01.038Z,28.77
2018-11-13T03:46:43.673Z,26.10
2018-11-13T03:49:26.295Z,28.63
2018-11-13T03:52:09.784Z,21.93
2018-11-13T03:54:54.383Z,28.60
2018-11-13T03:57:36.973Z,29.70
2018-11-13T04:00:20.908Z,26.63
2018-11-13T04:03:03.364Z,29.33
2018-11-13T04:05:46.546Z,25.53
2018-11-13T04:08:29.928Z,30.07
2018-11-13T04:11:12.895Z,26.27
2018-11-13T04:13:55.606Z,33.33
2018-11-13T04:16:38.988Z,24.50
2018-11-13T04:19:21.838Z,24.20
2018-11-13T04:22:05.570Z,20.90
2018-11-13T04:24:48.707Z,33.17
2018-11-13T04:27:31.279Z,23.33
2018-11-13T04:30:15.777Z,26.00
2018-11-13T04:32:58.366Z,27.53
2018-11-13T04:35:41.194Z,27.87
2018-11-13T04:38:23.853Z,31.63
2018-11-13T04:41:07.785Z,22.97
2018-11-13T04:43:50.876Z,26.83
2018-11-13T04:46:35.343Z,27.80
2018-11-13T04:49:18.916Z,14.83
2018-11-13T04:52:02.203Z,17.70
2018-11-13T04:54:45.213Z,23.53
2018-11-13T04:57:27.910Z,23.60
2018-11-13T05:00:13.827Z,18.33
2018-11-13T05:02:56.673Z,28.83
2018-11-13T05:05:40.229Z,28.53
2018-11-13T05:08:22.913Z,26.07
2018-11-13T05:11:05.914Z,32.37
2018-11-13T05:13:49.291Z,24.53
2018-11-13T05:16:32.042Z,22.03
2018-11-13T05:19:14.533Z,32.47
2018-11-13T05:21:57.934Z,26.90
2018-11-13T05:24:41.038Z,46.60
2018-11-13T05:27:24.526Z,38.83
2018-11-13T05:30:09.473Z,32.60
2018-11-13T05:32:52.500Z,28.50
2018-11-13T05:35:35.337Z,31.00
2018-11-13T05:38:18.274Z,26.00
2018-11-13T05:41:01.235Z,42.17
2018-11-13T05:43:44.632Z,19.33
2018-11-13T05:46:27.226Z,31.90
2018-11-13T05:49:10.179Z,29.77
2018-11-13T05:51:52.882Z,31.63
2018-11-13T05:54:35.454Z,28.50
2018-11-13T05:57:18.435Z,42.20
2018-11-13T06:00:01.377Z,25.73
2018-11-13T06:02:43.621Z,25.93
2018-11-13T06:05:26.463Z,38.13
2018-11-13T06:08:09.244Z,33.80
2018-11-13T06:10:53.096Z,32.47
2018-11-13T06:13:36.169Z,40.57
2018-11-13T06:16:18.562Z,35.80
2018-11-13T06:19:01.270Z,44.20
2018-11-13T06:21:44.334Z,32.40
2018-11-13T06:24:26.774Z,25.03
2018-11-13T06:27:10.119Z,30.13
2018-11-13T06:29:52.603Z,31.73
2018-11-13T06:32:36.003Z,21.80
2018-11-13T06:35:19.644Z,25.50
2018-11-13T06:38:02.254Z,33.80
2018-11-13T06:40:45.371Z,28.23
2018-11-13T06:43:29.530Z,26.93
2018-11-13T06:46:12.695Z,25.27
2018-11-13T06:48:56.066Z,25.00
2018-11-13T06:51:38.569Z,26.70
2018-11-13T06:54:32.383Z,27.03
2018-11-13T06:57:15.461Z,38.40
2018-11-13T06:59:57.933Z,27.03
2018-11-13T07:02:41.111Z,27.37
2018-11-13T07:05:23.870Z,29.73
2018-11-13T07:08:06.698Z,29.23
2018-11-13T07:10:49.688Z,23.87
2018-11-13T07:13:32.434Z,25.10
2018-11-13T07:16:16.134Z,23.67
2018-11-13T07:18:58.596Z,23.40
2018-11-13T07:21:41.612Z,24.20
2018-11-13T07:24:24.465Z,18.03
2018-11-13T07:27:07.650Z,31.50
2018-11-13T07:29:51.298Z,20.60
2018-11-13T07:32:34.107Z,23.77
2018-11-13T07:35:17.478Z,26.43
2018-11-13T07:38:01.010Z,25.13
2018-11-13T07:40:44.082Z,22.10
2018-11-13T07:43:26.674Z,22.87
2018-11-13T07:46:09.574Z,18.87
2018-11-13T07:48:51.933Z,24.03
2018-11-13T07:51:37.886Z,27.23
2018-11-13T07:54:20.596Z,20.37
2018-11-13T07:57:04.089Z,21.33
2018-11-13T07:59:47.174Z,28.13
2018-11-13T08:02:30.374Z,13.90
2018-11-13T08:05:13.360Z,28.40
2018-11-13T08:07:56.232Z,17.53
2018-11-13T08:10:39.147Z,21.83
2018-11-13T08:13:22.846Z,21.73
2018-11-13T08:16:05.844Z,30.20
2018-11-13T08:18:49.363Z,20.43
2018-11-13T08:21:31.887Z,17.80
2018-11-13T08:24:15.353Z,19.80
2018-11-13T08:26:58.231Z,23.27
2018-11-13T08:29:40.972Z,17.20
2018-11-13T08:32:23.708Z,19.07
2018-11-13T08:35:07.568Z,34.77
2018-11-13T08:37:50.655Z,25.33
2018-11-13T08:40:33.207Z,17.63
2018-11-13T08:43:16.255Z,24.93
2018-11-13T08:45:58.875Z,28.90
2018-11-13T08:48:41.650Z,20.03
2018-11-13T08:51:25.128Z,23.77
2018-11-13T08:54:07.888Z,23.73
2018-11-13T08:56:51.428Z,21.87
2018-11-13T08:59:33.684Z,21.40
2018-11-13T09:02:16.446Z,19.60
2018-11-13T09:04:59.239Z,26.03
2018-11-13T09:07:41.962Z,18.20
2018-11-13T09:10:24.890Z,28.33
2018-11-13T09:13:07.979Z,17.40
2018-11-13T09:15:51.351Z,17.60
2018-11-13T09:18:33.765Z,22.03
2018-11-13T09:21:16.547Z,24.73
2018-11-13T09:23:59.051Z,21.13
2018-11-13T09:26:41.763Z,22.33
2018-11-13T09:29:24.639Z,23.77
2018-11-13T09:32:07.559Z,19.93
2018-11-13T09:34:50.554Z,31.40
2018-11-13T09:37:33.489Z,25.67
2018-11-13T09:40:19.068Z,22.30
2018-11-13T09:43:01.982Z,22.23
2018-11-13T09:45:44.926Z,17.87
2018-11-13T09:48:27.622Z,43.53
2018-11-13T09:51:10.236Z,24.40
2018-11-13T09:53:52.949Z,22.33
2018-11-13T09:56:35.742Z,27.47
2018-11-13T09:59:18.300Z,19.23
2018-11-13T10:02:01.976Z,33.03
2018-11-13T10:04:44.437Z,29.87
2018-11-13T10:07:26.425Z,20.37
2018-11-13T10:10:10.511Z,22.53
2018-11-13T10:12:53.693Z,37.73
2018-11-13T10:15:36.766Z,24.87
2018-11-13T10:18:19.559Z,28.47
2018-11-13T10:21:02.091Z,20.20
2018-11-13T10:23:44.893Z,25.30
2018-11-13T10:26:27.606Z,18.70
2018-11-13T10:29:10.288Z,23.20
2018-11-13T10:31:53.313Z,19.97
2018-11-13T10:34:36.222Z,33.13
2018-11-13T10:37:18.743Z,34.03
2018-11-13T10:40:01.256Z,19.50
2018-11-13T10:42:44.199Z,25.63
2018-11-13T10:45:28.417Z,32.90
2018-11-13T10:48:10.670Z,29.67
2018-11-13T10:50:53.742Z,20.07
2018-11-13T10:53:36.867Z,35.17
2018-11-13T10:56:19.717Z,31.87
2018-11-13T10:59:02.551Z,30.80
2018-11-13T11:01:50.103Z,26.70
2018-11-13T11:04:39.276Z,30.37
2018-11-13T11:07:22.615Z,26.20
2018-11-13T11:10:07.277Z,28.10
2018-11-13T11:12:50.068Z,45.10
2018-11-13T11:15:32.445Z,32.13
2018-11-13T11:18:16.383Z,27.23
2018-11-13T11:20:58.879Z,24.60
2018-11-13T11:23:41.913Z,28.57
2018-11-13T11:26:24.641Z,29.80
2018-11-13T11:29:07.394Z,24.23
2018-11-13T11:31:50.322Z,30.63
2018-11-13T11:34:33.106Z,30.93
2018-11-13T11:37:15.734Z,42.23
2018-11-13T11:39:58.656Z,28.73
2018-11-13T11:42:41.502Z,33.23
2018-11-13T11:45:24.171Z,29.20
2018-11-13T11:48:07.559Z,44.03
2018-11-13T11:50:49.937Z,39.93
2018-11-13T11:53:32.794Z,30.30
2018-11-13T11:56:16.804Z,24.30
2018-11-13T11:58:59.935Z,26.30
2018-11-13T12:01:42.976Z,31.70
2018-11-13T12:04:26.944Z,41.33
2018-11-13T12:07:09.670Z,42.63
2018-11-13T12:09:52.485Z,34.03
2018-11-13T12:12:35.035Z,38.70
2018-11-13T12:15:17.839Z,49.10
2018-11-13T12:18:01.658Z,53.07
2018-11-13T12:20:44.089Z,45.17
2018-11-13T12:23:27.498Z,38.50
2018-11-13T12:26:10.055Z,30.70
2018-11-13T12:28:53.609Z,38.67
2018-11-13T12:31:37.095Z,45.13
2018-11-13T12:34:20.115Z,34.40
2018-11-13T12:37:03.594Z,29.70
2018-11-13T12:39:46.939Z,33.80
2018-11-13T12:42:30.385Z,29.33
2018-11-13T12:45:13.220Z,29.87
2018-11-13T12:47:55.747Z,28.40
2018-11-13T12:50:43.746Z,33.23
2018-11-13T12:53:26.323Z,46.37
2018-11-13T12:56:09.350Z,26.77
2018-11-13T12:58:52.275Z,23.60
2018-11-13T13:01:35.208Z,21.73
2018-11-13T13:04:18.478Z,35.03
2018-11-13T13:07:00.931Z,39.03
2018-11-13T13:09:44.090Z,31.67
2018-11-13T13:12:26.862Z,39.30
2018-11-13T13:15:13.094Z,27.57
2018-11-13T13:17:56.271Z,33.70
2018-11-13T13:20:40.053Z,36.47
2018-11-13T13:23:23.634Z,30.80
2018-11-13T13:26:07.155Z,23.80
2018-11-13T13:28:50.541Z,32.73
2018-11-13T13:31:34.788Z,26.83
2018-11-13T13:34:17.922Z,20.90
2018-11-13T13:37:00.572Z,30.37
2018-11-13T13:39:43.904Z,25.10
2018-11-13T13:42:27.483Z,28.00
2018-11-13T13:45:09.891Z,27.87
2018-11-13T13:47:52.386Z,31.67
2018-11-13T13:50:35.522Z,24.33
2018-11-13T13:53:18.742Z,24.03
2018-11-13T13:56:01.435Z,31.57
2018-11-13T13:58:45.337Z,28.63
2018-11-13T14:01:28.782Z,27.90
2018-11-13T14:04:11.386Z,37.63
2018-11-13T14:06:54.506Z,27.20
2018-11-13T14:09:37.387Z,29.30
2018-11-13T14:12:20.067Z,24.10
2018-11-13T14:15:03.277Z,28.73
2018-11-13T14:17:46.061Z,26.20
2018-11-13T14:20:28.833Z,28.83
2018-11-13T14:23:11.372Z,31.57
2018-11-13T14:25:54.285Z,32.03
2018-11-13T14:28:36.733Z,38.13
2018-11-13T14:31:19.923Z,24.10
2018-11-13T14:34:02.302Z,39.93
2018-11-13T14:36:44.995Z,48.23
2018-11-13T14:39:28.001Z,36.83
2018-11-13T14:42:10.810Z,44.50
2018-11-13T14:44:53.391Z,46.97
2018-11-13T14:47:36.461Z,44.90
2018-11-13T14:50:20.724Z,43.27
2018-11-13T14:53:04.123Z,40.10
2018-11-13T14:55:46.813Z,44.30
2018-11-13T14:58:29.249Z,53.77
2018-11-13T15:01:13.330Z,61.63
2018-11-13T15:03:55.884Z,56.63
2018-11-13T15:06:38.971Z,42.33
2018-11-13T15:09:21.614Z,34.37
2018-11-13T15:12:04.610Z,36.83
2018-11-13T15:14:46.922Z,29.13
2018-11-13T15:17:29.652Z,41.13
2018-11-13T15:20:14.367Z,43.33
2018-11-13T15:22:57.530Z,35.83
2018-11-13T15:25:40.080Z,47.77
2018-11-13T15:28:22.732Z,40.93
2018-11-13T15:31:06.254Z,43.70
2018-11-13T15:33:48.406Z,50.13
2018-11-13T15:36:31.167Z,33.00
2018-11-13T15:39:14.110Z,55.53
2018-11-13T15:41:56.431Z,37.20
2018-11-13T15:44:39.417Z,34.60
2018-11-13T15:47:22.088Z,39.90
2018-11-13T15:50:05.982Z,32.23
2018-11-13T15:52:48.932Z,29.83
2018-11-13T15:55:31.676Z,32.33
2018-11-13T15:58:14.746Z,30.77
2018-11-13T16:00:57.307Z,33.50
2018-11-13T16:03:40.130Z,27.63
2018-11-13T16:06:23.071Z,31.80
2018-11-13T16:09:09.677Z,40.90
2018-11-13T16:11:52.639Z,27.37
2018-11-13T16:14:36.253Z,49.47
2018-11-13T16:17:19.654Z,36.13
2018-11-13T16:20:02.650Z,40.27
2018-11-13T16:22:45.000Z,32.30
2018-11-13T16:25:28.511Z,34.40
2018-11-13T16:28:10.890Z,32.90
2018-11-13T16:30:54.261Z,32.10
2018-11-13T16:33:36.355Z,44.60
2018-11-13T16:36:19.457Z,47.93
2018-11-13T16:39:02.101Z,42.37
2018-11-13T16:41:44.760Z,36.80
2018-11-13T16:44:27.606Z,36.47
2018-11-13T16:47:10.309Z,32.77
2018-11-13T16:49:53.214Z,31.30
2018-11-13T16:52:36.227Z,31.57
2018-11-13T16:55:24.264Z,40.30
2018-11-13T16:58:08.162Z,31.67
2018-11-13T17:00:50.882Z,33.63
2018-11-13T17:03:34.762Z,29.43
2018-11-13T17:06:17.672Z,34.50
2018-11-13T17:09:00.346Z,34.20
2018-11-13T17:11:44.223Z,34.20
2018-11-13T17:14:26.864Z,39.07
2018-11-13T17:17:09.456Z,32.37
2018-11-13T17:19:52.287Z,36.53
2018-11-13T17:22:35.473Z,29.23
2018-11-13T17:25:19.346Z,45.60
2018-11-13T17:28:01.856Z,41.27
2018-11-13T17:30:44.725Z,36.60
2018-11-13T17:33:28.230Z,37.27
2018-11-13T17:36:10.487Z,35.77
2018-11-13T17:38:53.128Z,35.97
2018-11-13T17:41:35.765Z,36.13
2018-11-13T17:44:18.779Z,30.60
2018-11-13T17:47:01.819Z,34.83
2018-11-13T17:49:44.648Z,32.83
2018-11-13T17:52:27.523Z,25.10
2018-11-13T17:55:11.258Z,37.73
2018-11-13T17:57:55.892Z,30.40
2018-11-13T18:00:39.873Z,35.30
2018-11-13T18:03:22.272Z,34.87
2018-11-13T18:06:05.876Z,33.43
2018-11-13T18:08:48.615Z,31.87
2018-11-13T18:11:31.366Z,36.43
2018-11-13T18:14:15.723Z,37.10
2018-11-13T18:16:58.129Z,39.60
2018-11-13T18:19:41.072Z,33.90
2018-11-13T18:22:23.798Z,30.60
2018-11-13T18:25:07.463Z,44.87
2018-11-13T18:27:52.128Z,59.20
2018-11-13T18:30:36.784Z,52.60
2018-11-13T18:33:19.883Z,55.03
2018-11-13T18:36:03.788Z,66.87
2018-11-13T18:38:47.856Z,56.07
2018-11-13T18:41:31.254Z,71.57
2018-11-13T18:44:16.032Z,46.17
2018-11-13T18:46:59.330Z,43.40
2018-11-13T18:49:42.516Z,42.77
2018-11-13T18:52:26.976Z,64.43
2018-11-13T18:55:10.488Z,46.53
2018-11-13T18:57:53.902Z,35.60
2018-11-13T19:00:38.226Z,43.27
2018-11-13T19:03:21.122Z,39.40
2018-11-13T19:06:04.026Z,31.00
2018-11-13T19:08:46.524Z,55.80
2018-11-13T19:11:29.703Z,50.33
2018-11-13T19:14:13.582Z,32.90
2018-11-13T19:16:56.659Z,38.30
2018-11-13T19:19:39.636Z,33.70
2018-11-13T19:22:22.459Z,37.97
2018-11-13T19:25:05.135Z,36.83
2018-11-13T19:27:48.289Z,37.13
2018-11-13T19:30:30.407Z,39.70
2018-11-13T19:33:13.588Z,26.17
2018-11-13T19:35:56.420Z,34.20
2018-11-13T19:38:39.110Z,31.43
2018-11-13T19:41:21.596Z,38.20
2018-11-13T19:44:04.186Z,42.43
2018-11-13T19:46:47.350Z,39.00
2018-11-13T19:49:29.820Z,38.90
2018-11-13T19:52:12.351Z,36.80
2018-11-13T19:54:56.796Z,29.00
2018-11-13T19:57:41.386Z,29.97
2018-11-13T20:00:26.391Z,26.67
2018-11-13T20:03:10.173Z,28.83
2018-11-13T20:05:53.092Z,27.73
2018-11-13T20:08:35.818Z,25.97
2018-11-13T20:11:18.944Z,24.53
2018-11-13T20:14:01.954Z,40.37
2018-11-13T20:16:44.412Z,37.97
2018-11-13T20:19:28.681Z,27.50
2018-11-13T20:22:11.704Z,34.07
2018-11-13T20:26:02.318Z,30.63
2018-11-13T20:28:45.761Z,21.37
2018-11-13T20:31:28.670Z,23.60
2018-11-13T20:34:11.599Z,20.07
2018-11-13T20:37:00.032Z,28.27
2018-11-13T20:39:42.850Z,27.73
2018-11-13T20:42:25.972Z,26.87
2018-11-13T20:45:10.748Z,30.40
2018-11-13T20:48:11.859Z,24.33
2018-11-13T20:50:54.875Z,23.07
2018-11-13T20:53:39.404Z,22.57
2018-11-13T20:56:22.808Z,27.70
2018-11-13T20:59:06.020Z,15.87
2018-11-13T21:01:57.380Z,23.10
2018-11-13T21:04:40.996Z,35.53
2018-11-13T21:07:23.519Z,28.10
2018-11-13T21:10:09.360Z,29.57
2018-11-13T21:12:53.035Z,30.37
2018-11-13T21:15:37.787Z,24.10
2018-11-13T21:18:20.856Z,27.60
2018-11-13T21:21:08.796Z,20.23
2018-11-13T21:23:52.210Z,20.30
2018-11-13T21:26:36.369Z,18.20
2018-11-13T21:29:19.831Z,20.03
2018-11-13T21:32:02.680Z,19.87
2018-11-13T21:34:47.150Z,17.63
2018-11-13T21:37:30.198Z,23.23
2018-11-13T21:40:15.861Z,19.87
2018-11-13T21:42:59.410Z,19.63
2018-11-13T21:45:42.417Z,31.90
2018-11-13T21:48:30.543Z,20.60
2018-11-13T21:51:14.293Z,20.13
2018-11-13T21:53:57.519Z,22.20
2018-11-13T21:56:40.518Z,19.40
2018-11-13T21:59:23.404Z,15.73
2018-11-13T22:02:05.859Z,30.40
2018-11-13T22:04:49.221Z,19.00
2018-11-13T22:07:32.291Z,23.13
2018-11-13T22:10:15.628Z,18.97
2018-11-13T22:12:59.203Z,20.70
2018-11-13T22:15:42.224Z,19.17
2018-11-13T22:18:24.740Z,25.57
2018-11-13T22:21:07.583Z,17.47
2018-11-13T22:23:50.498Z,20.93
2018-11-13T22:26:33.324Z,25.47
2018-11-13T22:29:16.298Z,25.13
2018-11-13T22:31:59.644Z,23.33
2018-11-13T22:34:42.584Z,24.03
2018-11-13T22:37:26.676Z,30.13
2018-11-13T22:40:12.780Z,24.90
2018-11-13T22:42:56.518Z,24.43
2018-11-13T22:45:43.998Z,23.00
2018-11-13T22:48:27.340Z,22.90
2018-11-13T22:51:10.798Z,25.10
2018-11-13T22:53:53.414Z,16.63
2018-11-13T22:56:36.548Z,22.50
2018-11-13T22:59:19.927Z,22.63
2018-11-13T23:02:03.556Z,24.80
2018-11-13T23:04:45.890Z,27.40
2018-11-13T23:07:28.605Z,23.77
2018-11-13T23:10:24.023Z,24.27
2018-11-13T23:13:07.101Z,25.53
2018-11-13T23:15:50.032Z,23.87
2018-11-13T23:18:33.161Z,20.07
2018-11-13T23:21:16.591Z,19.40
2018-11-13T23:23:59.832Z,27.23
2018-11-13T23:26:42.547Z,22.23
2018-11-13T23:29:28.368Z,18.73
2018-11-13T23:32:11.271Z,20.37
2018-11-13T23:34:54.273Z,19.90
2018-11-13T23:37:40.347Z,25.23
2018-11-13T23:40:24.484Z,21.97
2018-11-13T23:43:06.827Z,22.53
2018-11-13T23:45:49.939Z,24.63
2018-11-13T23:48:32.692Z,24.80
2018-11-13T23:51:15.923Z,22.73
2018-11-13T23:53:59.273Z,24.60
2018-11-13T23:56:41.847Z,21.87
2018-11-13T23:59:24.696Z,38.97
